Chickasaw, Iowa
Current Conditions -  °F | °C
As of 8:35 AM on Thursday 29 Jan 2015 (Local Time) from KCCY Reporting Station
Overcast Overcast  
Wind Chill: -7°   Ceiling: 1300
Heat Index:   Visibility: 10mi
Dew Point:   Wind: 22mph
Humidity: 100%   Direction: 330°NNW
Pressure: 30.07"   Gusts: 32mph
Location:  43.0386°N, 92.4951°W
Report Text: KCCY 291435Z AUTO 33019G28KT 10SM OVC013 00/M00 A3007 RMK AO2
Loading
Personal Weather Stations






























Interactive Weather Map New forecast layout! Learn more

10-Day Weather Forecast

Advertisements
Track Severe Weather on mobile